createdAt,value
2023-04-24T00:04:00.690Z,99.90
2023-04-24T00:09:06.113Z,99.90
2023-04-24T00:14:09.014Z,99.90
2023-04-24T00:19:12.387Z,99.90
2023-04-24T00:24:14.978Z,99.90
2023-04-24T00:29:17.469Z,99.90
2023-04-24T00:34:20.442Z,99.90
2023-04-24T00:39:24.025Z,99.90
2023-04-24T00:44:26.634Z,99.90
2023-04-24T00:49:29.115Z,99.90
2023-04-24T00:54:31.762Z,99.90
2023-04-24T00:59:34.686Z,99.90
2023-04-24T01:04:37.766Z,99.90
2023-04-24T01:09:44.831Z,99.90
2023-04-24T01:14:48.084Z,99.90
2023-04-24T01:19:54.821Z,99.90
2023-04-24T01:24:57.700Z,99.90
2023-04-24T01:30:00.816Z,99.90
2023-04-24T01:35:06.588Z,99.90
2023-04-24T01:40:09.508Z,99.90
2023-04-24T01:45:14.096Z,99.90
2023-04-24T01:50:17.157Z,99.90
2023-04-24T01:55:19.654Z,99.90
2023-04-24T02:00:22.159Z,99.90
2023-04-24T02:05:24.662Z,99.90
2023-04-24T02:10:27.076Z,99.90
2023-04-24T02:15:30.069Z,99.90
2023-04-24T02:20:35.038Z,99.90
2023-04-24T02:25:37.521Z,99.90
2023-04-24T02:30:39.995Z,99.90
2023-04-24T02:35:42.461Z,99.90
2023-04-24T02:40:44.903Z,99.90
2023-04-24T02:45:47.646Z,99.90
2023-04-24T02:50:50.340Z,99.90
2023-04-24T02:55:53.234Z,99.90
2023-04-24T03:00:57.087Z,99.90
2023-04-24T03:06:00.252Z,99.90
2023-04-24T03:11:02.758Z,99.90
2023-04-24T03:16:06.196Z,99.90
2023-04-24T03:21:08.716Z,99.90
2023-04-24T03:26:13.030Z,99.90
2023-04-24T03:31:26.257Z,99.90
2023-04-24T03:36:28.975Z,99.90
2023-04-24T03:41:31.949Z,99.90
2023-04-24T03:46:47.588Z,99.90
2023-04-24T03:51:50.871Z,99.90
2023-04-24T03:56:58.319Z,99.90
2023-04-24T04:02:03.442Z,99.90
2023-04-24T04:07:06.567Z,99.90
2023-04-24T04:12:09.149Z,99.90
2023-04-24T04:17:17.815Z,99.90
2023-04-24T04:22:20.486Z,99.90
2023-04-24T04:27:26.295Z,99.90
2023-04-24T04:32:36.649Z,99.90
2023-04-24T04:37:41.187Z,99.90
2023-04-24T04:43:07.343Z,99.90
2023-04-24T04:48:20.684Z,99.90
2023-04-24T04:53:23.464Z,99.90
2023-04-24T04:58:26.863Z,99.90
2023-04-24T05:03:53.827Z,99.90
2023-04-24T05:08:58.361Z,99.90
2023-04-24T05:14:21.709Z,99.90
2023-04-24T05:19:26.337Z,99.90
2023-04-24T05:43:51.367Z,99.90
2023-04-24T05:49:05.495Z,99.90
2023-04-24T06:13:06.057Z,99.90
2023-04-24T06:18:13.826Z,99.90
2023-04-24T06:23:19.693Z,99.90
2023-04-24T06:29:01.838Z,99.90
2023-04-24T06:34:05.050Z,99.90
2023-04-24T06:39:29.302Z,99.90
2023-04-24T07:04:02.256Z,99.90
2023-04-24T07:15:20.199Z,99.90
2023-04-24T07:20:37.090Z,98.90
2023-04-24T07:25:47.272Z,97.30
2023-04-24T07:30:50.020Z,96.10
2023-04-24T07:35:57.949Z,94.90
2023-04-24T07:41:13.847Z,95.10
2023-04-24T07:46:21.143Z,95.00
2023-04-24T07:51:23.873Z,93.00
2023-04-24T07:56:33.437Z,92.40
2023-04-24T08:01:38.845Z,92.10
2023-04-24T08:06:44.840Z,92.00
2023-04-24T08:11:47.550Z,91.70
2023-04-24T08:16:50.160Z,91.80
2023-04-24T08:21:52.852Z,90.80
2023-04-24T08:27:04.646Z,89.80
2023-04-24T08:32:36.491Z,90.20
2023-04-24T08:37:49.582Z,88.40
2023-04-24T08:42:55.352Z,89.00
2023-04-24T08:47:59.679Z,89.60
2023-04-24T08:53:04.516Z,89.40
2023-04-24T08:58:08.638Z,91.00
2023-04-24T09:03:11.993Z,92.00
2023-04-24T09:08:15.793Z,92.60
2023-04-24T09:13:19.921Z,93.20
2023-04-24T09:18:22.557Z,91.10
2023-04-24T09:23:30.638Z,90.20
2023-04-24T09:28:38.253Z,90.30
2023-04-24T09:33:41.288Z,90.50
2023-04-24T09:38:43.999Z,90.50
2023-04-24T09:44:08.578Z,89.40
2023-04-24T09:49:19.303Z,87.90
2023-04-24T09:59:47.485Z,84.30
2023-04-24T10:04:57.888Z,83.70
2023-04-24T10:10:05.495Z,82.30
2023-04-24T10:15:34.331Z,80.30
2023-04-24T10:20:52.496Z,77.90
2023-04-24T10:25:58.951Z,75.80
2023-04-24T10:31:05.543Z,73.80
2023-04-24T10:36:15.395Z,72.30
2023-04-24T10:41:34.048Z,74.20
2023-04-24T10:52:58.136Z,69.00
2023-04-24T11:10:34.273Z,67.00
2023-04-24T11:22:11.336Z,67.90
2023-04-24T11:27:53.048Z,68.80
2023-04-24T11:33:23.063Z,67.00
2023-04-24T11:38:25.938Z,66.70
2023-04-24T11:43:33.518Z,67.10
2023-04-24T11:48:41.362Z,64.50
2023-04-24T11:53:44.660Z,66.60
2023-04-24T11:59:28.736Z,63.80
2023-04-24T12:04:50.204Z,63.50
2023-04-24T12:10:01.211Z,64.80
2023-04-24T12:21:36.712Z,68.50
2023-04-24T12:26:44.293Z,70.30
2023-04-24T12:31:46.849Z,79.70
2023-04-24T12:36:50.446Z,78.00
2023-04-24T12:41:58.414Z,76.30
2023-04-24T12:47:01.670Z,77.60
2023-04-24T12:52:04.174Z,75.00
2023-04-24T12:57:06.861Z,75.30
2023-04-24T13:02:27.147Z,74.60
2023-04-24T13:07:30.121Z,71.10
2023-04-24T13:12:36.311Z,75.40
2023-04-24T13:17:39.014Z,72.70
2023-04-24T13:22:41.934Z,71.50
2023-04-24T13:27:44.502Z,72.10
2023-04-24T13:32:47.104Z,70.90
2023-04-24T13:37:50.156Z,70.70
2023-04-24T13:42:52.682Z,69.40
2023-04-24T13:47:55.496Z,66.90
2023-04-24T13:52:58.734Z,66.90
2023-04-24T13:58:02.436Z,64.40
2023-04-24T14:03:05.263Z,67.80
2023-04-24T14:08:07.795Z,68.30
2023-04-24T14:13:10.513Z,70.10
2023-04-24T14:18:13.160Z,71.00
2023-04-24T14:23:18.410Z,69.90
2023-04-24T14:28:22.159Z,70.30
2023-04-24T14:33:24.702Z,69.60
2023-04-24T14:38:27.996Z,72.30
2023-04-24T14:43:30.463Z,80.10
2023-04-24T14:48:33.015Z,88.40
2023-04-24T14:53:35.621Z,90.00
2023-04-24T14:58:38.125Z,90.50
2023-04-24T15:03:41.028Z,91.60
2023-04-24T15:08:43.646Z,88.50
2023-04-24T15:13:46.674Z,89.50
2023-04-24T15:18:49.547Z,89.70
2023-04-24T15:23:52.096Z,88.50
2023-04-24T15:28:54.628Z,90.30
2023-04-24T15:33:57.082Z,90.00
2023-04-24T15:39:00.792Z,93.00
2023-04-24T15:44:04.410Z,92.60
2023-04-24T15:49:06.895Z,91.30
2023-04-24T15:54:09.381Z,93.90
2023-04-24T15:59:11.910Z,95.20
2023-04-24T16:04:20.803Z,97.40
2023-04-24T16:09:23.825Z,99.90
2023-04-24T16:14:30.949Z,99.90
2023-04-24T16:19:55.860Z,99.90
2023-04-24T16:24:58.983Z,99.90
2023-04-24T16:30:02.069Z,99.90
2023-04-24T16:35:04.954Z,99.90
2023-04-24T16:40:11.626Z,99.90
2023-04-24T16:45:14.201Z,99.90
2023-04-24T16:50:16.809Z,99.90
2023-04-24T16:55:19.515Z,99.90
2023-04-24T17:00:22.141Z,99.90
2023-04-24T17:05:24.900Z,99.90
2023-04-24T17:10:27.799Z,99.90
2023-04-24T17:15:30.806Z,99.90
2023-04-24T17:20:33.429Z,99.90
2023-04-24T17:25:36.123Z,99.90
2023-04-24T17:30:38.759Z,99.90
2023-04-24T17:35:48.782Z,99.90
2023-04-24T17:40:54.827Z,99.90
2023-04-24T17:46:02.998Z,99.90
2023-04-24T17:51:05.629Z,99.90
2023-04-24T17:56:08.499Z,99.70
2023-04-24T18:01:17.131Z,97.70
2023-04-24T18:06:19.671Z,96.90
2023-04-24T18:11:22.547Z,97.00
2023-04-24T18:16:25.937Z,98.70
2023-04-24T18:21:29.298Z,99.30
2023-04-24T18:26:31.941Z,99.90
2023-04-24T18:31:34.699Z,99.90
2023-04-24T18:36:37.382Z,99.90
2023-04-24T18:41:40.530Z,99.90
2023-04-24T18:46:43.000Z,99.90
2023-04-24T18:51:53.975Z,99.90
2023-04-24T18:56:57.157Z,99.90
2023-04-24T19:01:59.802Z,99.90
2023-04-24T19:07:02.313Z,99.90
2023-04-24T19:12:06.598Z,99.90
2023-04-24T19:17:10.555Z,99.90
2023-04-24T19:22:13.067Z,99.90
2023-04-24T19:27:15.623Z,99.90
2023-04-24T19:32:18.352Z,99.90
2023-04-24T19:37:20.892Z,99.90
2023-04-24T19:42:32.286Z,99.90
2023-04-24T19:47:39.057Z,99.90
2023-04-24T19:52:42.190Z,99.90
2023-04-24T19:57:45.371Z,99.90
2023-04-24T20:02:48.027Z,99.90
2023-04-24T20:07:51.362Z,99.90
2023-04-24T20:12:54.604Z,99.90
2023-04-24T20:17:57.108Z,99.90
2023-04-24T20:22:59.988Z,99.90
2023-04-24T20:28:02.723Z,99.90
2023-04-24T20:33:05.384Z,99.90
2023-04-24T20:38:11.020Z,99.90
2023-04-24T20:43:14.452Z,99.90
2023-04-24T20:48:16.990Z,99.90
2023-04-24T20:53:21.165Z,99.90
2023-04-24T20:58:24.450Z,99.90
2023-04-24T21:03:27.440Z,99.90
2023-04-24T21:08:30.131Z,99.90
2023-04-24T21:13:32.673Z,99.90
2023-04-24T21:18:35.569Z,99.90
2023-04-24T21:23:39.129Z,99.90
2023-04-24T21:28:41.683Z,99.90
2023-04-24T21:33:44.116Z,99.90
2023-04-24T21:38:46.514Z,99.90
2023-04-24T21:43:50.716Z,99.90
2023-04-24T21:48:53.516Z,99.90
2023-04-24T21:53:55.892Z,99.90
2023-04-24T21:58:59.054Z,99.90
2023-04-24T22:04:03.632Z,99.90
2023-04-24T22:09:07.652Z,99.90
2023-04-24T22:14:10.113Z,99.90
2023-04-24T22:19:12.568Z,99.90
2023-04-24T22:24:15.139Z,99.90
2023-04-24T22:29:17.659Z,99.90
2023-04-24T22:34:20.257Z,99.50
2023-04-24T22:39:22.779Z,99.10
2023-04-24T22:44:25.945Z,99.50
2023-04-24T22:49:28.624Z,98.70
2023-04-24T22:54:34.932Z,97.60
2023-04-24T22:59:37.357Z,97.90
2023-04-24T23:04:39.761Z,97.30
2023-04-24T23:09:42.233Z,97.80
2023-04-24T23:14:45.073Z,97.50
2023-04-24T23:19:48.095Z,98.00
2023-04-24T23:24:50.689Z,97.60
2023-04-24T23:29:53.408Z,97.90
2023-04-24T23:34:56.517Z,97.80
2023-04-24T23:39:59.003Z,97.60
2023-04-24T23:45:01.893Z,98.20
2023-04-24T23:50:04.792Z,98.00
2023-04-24T23:55:09.520Z,98.30
